Flight Track Log - Related Links

Times and Time Zones

All times are in EDT time to prevent confusion due to time zone crossing. See the SWA714 flight status page for this flight to view local times or setup timezone preferences in your user account.

Time Position Orientation Groundspeed Altitude Reporting Facility
EDT Latitude Longitude Course Direction KTS MPH feet Rate Location/Type
Tue 10:46:15 AM 33.6800 -101.8314 360° North 151 174 4,200  Level Fort Worth Center
Tue 10:47:03 AM 33.7239 -101.8311 360° North 209 241 4,900 1,321 Climbing Fort Worth Center
Tue 10:48:04 AM 33.7408 -101.7644 73° East 262 302 6,600 2,231 Climbing Fort Worth Center
Tue 10:49:04 AM 33.7422 -101.6647 89° East 314 361 9,400 2,565 Climbing Fort Worth Center
Tue 10:50:15 AM 33.7486 -101.5303 87° East 349 402 12,200 2,519 Climbing Fort Worth Center
Tue 10:51:15 AM 33.7522 -101.4228 88° East 354 407 14,900 2,800 Climbing Fort Worth Center
Tue 10:52:15 AM 33.7586 -101.2833 87° East 374 430 17,800 2,550 Climbing Fort Worth Center
Tue 10:53:15 AM 33.7603 -101.1611 89° East 387 445 20,000 2,250 Climbing Fort Worth Center
Tue 10:54:15 AM 33.7667 -101.0114 87° East 401 461 22,300 2,000 Climbing Fort Worth Center
Tue 10:55:15 AM 33.7683 -100.8814 89° East 421 484 24,000 1,800 Climbing Fort Worth Center
Tue 10:56:15 AM 33.7747 -100.7219 87° East 428 493 25,900 1,750 Climbing Fort Worth Center
Tue 10:57:15 AM 33.7742 -100.5869 90° East 440 506 27,500 1,350 Climbing Fort Worth Center
Tue 10:58:15 AM 33.7697 -100.4319 92° East 445 512 28,600 1,450 Climbing Fort Worth Center
Tue 10:59:15 AM 33.7567 -100.2764 96° East 458 527 30,400 1,900 Climbing Fort Worth Center
Tue 11:00:15 AM 33.7411 -100.1236 97° East 464 534 32,400 1,700 Climbing Fort Worth Center
Tue 11:01:15 AM 33.7256 -99.9733 97° East 464 534 33,800 1,300 Climbing Fort Worth Center
Tue 11:02:15 AM 33.7097 -99.8206 97° East 464 534 35,000 600 Climbing Fort Worth Center
Tue 11:03:15 AM 33.6942 -99.6503 96° East 464 534 35,000  Level Fort Worth Center
Tue 11:04:15 AM 33.6781 -99.4978 97° East 464 534 35,000  Level Fort Worth Center
Tue 11:05:15 AM 33.6639 -99.3450 96° East 464 534 35,000  Level Fort Worth Center
Tue 11:06:15 AM 33.6453 -99.1950 98° East 464 534 35,000  Level Fort Worth Center
Tue 11:07:15 AM 33.6322 -99.0625 97° East 459 528 35,000  Level Fort Worth Center
Tue 11:08:15 AM 33.6156 -98.9125 98° East 454 522 35,000 -600 Level Fort Worth Center
Tue 11:09:15 AM 33.6006 -98.7625 97° East 454 522 33,800  Descending Fort Worth Center
Tue 11:10:15 AM 33.5833 -98.6128 98° East 448 516 35,000 -2,900 Climbing Fort Worth Center
Tue 11:11:15 AM 33.5678 -98.4631 97° East 448 516 28,000 -4,800 Descending Fort Worth Center
Tue 11:12:15 AM 33.5483 -98.3033 98° East 443 510 25,400 -2,231 Descending Fort Worth Center
Tue 11:13:16 AM 33.5325 -98.1786 99° East 419 482 23,500 -2,200 Descending Fort Worth Center
Tue 11:14:15 AM 33.5164 -98.0339 98° East 406 467 21,000 -2,269 Descending Fort Worth Center
Tue 11:15:15 AM 33.5025 -97.9167 98° East 400 460 19,000 -2,200 Descending Fort Worth Center
Tue 11:16:15 AM 33.4861 -97.7822 98° East 386 444 16,600 -2,200 Descending Fort Worth Center
Tue 11:17:15 AM 33.4719 -97.6725 99° East 374 430 14,600 -2,100 Descending Fort Worth Center
Tue 11:18:15 AM 33.4575 -97.5553 98° East 363 418 12,400 -1,800 Descending Fort Worth Center
Tue 11:19:15 AM 33.4242 -97.4433 110° East 333 383 11,000 -1,450 Descending Fort Worth Center
Tue 11:20:15 AM 33.3719 -97.3836 136° Southeast 297 342 9,500 -1,600 Descending Fort Worth Center
Tue 11:21:15 AM 33.3594 -97.2767 98° East 273 314 7,800 -1,650 Descending Fort Worth Center
Tue 11:22:15 AM 33.3572 -97.1772 92° East 291 335 6,200 -1,600 Descending Fort Worth Center
Tue 11:23:15 AM 33.3528 -97.0828 93° East 291 335 4,600 -1,100 Descending Fort Worth Center
Tue 11:24:15 AM 33.3483 -96.9931 93° East 286 329 4,000 -300 Descending Fort Worth Center
Tue 11:25:15 AM 33.3125 -96.9164 119° Southeast 260 299 4,000  Level Fort Worth Center
Tue 11:26:15 AM 33.2581 -96.8619 140° Southeast 255 293 4,000  Level Fort Worth Center
Tue 11:27:15 AM 33.1975 -96.8475 169° South 248 285 4,000  Level Fort Worth Center
Tue 11:28:15 AM 33.1244 -96.8603 188° South 243 280 4,000  Level Fort Worth Center
Tue 11:28:38 AM 33.1000 -96.8667 192° South 233 268 4,000 -651 Level Dallas / Fort Worth TRACON
Tue 11:29:38 AM 33.0500 -96.9000 209° Southwest 218 251 3,100 -895 Descending Dallas / Fort Worth TRACON
Tue 11:30:32 AM 33.0000 -96.9167 196° South 205 236 2,300 -398 Descending Dallas / Fort Worth TRACON
Tue 11:32:39 AM 32.9000 -96.9167 180° South 134 154 1,900 -353 Descending Dallas / Fort Worth TRACON
Tue 11:33:39 AM 32.8833 -96.9000 140° Southeast 123 142 1,200 -700 Descending Dallas / Fort Worth TRACON
Tue 11:35:00 AM 32.8471 -96.8518 180° South  Level Estimated
Tue 11:42:00 AM 32.8471 -96.8518 180° South  Level Estimated

Login

Don't have an account? Register now (free) for customized features, flight alerts, and more!